Time;durP1;ratioP1;P1;durP2;ratioP2;P2;SDS_P1;SDS_P2;PMS_P1;PMS_P2;Temp;Humidity;BMP_temperature;BMP_pressure;BME280_temperature;BME280_humidity;BME280_pressure;Samples;Min_cycle;Max_cycle;Signal;HPM_P1;HPM_P2
2022/12/23 00:00:20;;;;;;;5.28;4.07;;;10.90;78.20;;;;;;5067444;28;20074;-73
2022/12/23 00:02:46;;;;;;;5.40;4.30;;;11.00;78.30;;;;;;5081786;28;20033;-73
2022/12/23 00:05:12;;;;;;;5.32;4.25;;;10.90;78.20;;;;;;5070130;28;20028;-75
2022/12/23 00:07:38;;;;;;;5.00;4.18;;;10.90;78.20;;;;;;5070067;28;20476;-74
2022/12/23 00:10:04;;;;;;;5.63;3.60;;;11.00;78.20;;;;;;5079707;28;20043;-75
2022/12/23 00:15:14;;;;;;;5.57;4.35;;;10.90;78.30;;;;;;5073175;28;20491;-76
2022/12/23 00:17:43;;;;;;;7.28;4.45;;;10.90;78.20;;;;;;5073069;28;20036;-76
2022/12/23 00:20:13;;;;;;;6.55;4.53;;;10.90;78.30;;;;;;5068352;28;20101;-74
2022/12/23 00:25:39;;;;;;;6.68;4.63;;;10.90;78.20;;;;;;5072469;28;20045;-73
2022/12/23 00:28:10;;;;;;;6.40;4.15;;;10.90;78.30;;;;;;5073003;28;20066;-75
2022/12/23 00:30:51;;;;;;;6.45;3.95;;;10.90;78.20;;;;;;5089061;28;20131;-75
2022/12/23 00:33:22;;;;;;;6.10;4.00;;;10.90;78.30;;;;;;5071569;28;20395;-75
2022/12/23 00:35:48;;;;;;;6.07;4.00;;;10.90;78.20;;;;;;5071230;28;20404;-75
2022/12/23 00:38:16;;;;;;;4.80;4.15;;;11.00;78.30;;;;;;5066539;28;20032;-75
2022/12/23 00:43:27;;;;;;;6.63;4.07;;;10.90;78.30;;;;;;5071958;28;20035;-74
2022/12/23 00:45:53;;;;;;;5.22;3.60;;;10.90;78.30;;;;;;5088431;28;20446;-74
2022/12/23 00:51:04;;;;;;;5.88;4.30;;;10.90;78.30;;;;;;5084371;28;20032;-75
2022/12/23 00:53:30;;;;;;;4.65;3.88;;;10.90;78.40;;;;;;5074833;28;20043;-75
2022/12/23 00:55:55;;;;;;;4.82;3.95;;;10.90;78.30;;;;;;5041637;28;20115;-77
2022/12/23 00:58:21;;;;;;;5.28;4.22;;;10.90;78.20;;;;;;5075573;28;20387;-75
2022/12/23 01:06:17;;;;;;;5.32;4.07;;;10.90;78.50;;;;;;5074290;28;20032;-74
2022/12/23 01:08:43;;;;;;;4.95;3.70;;;10.90;78.50;;;;;;5075812;28;20043;-78
2022/12/23 01:11:10;;;;;;;5.55;4.43;;;10.90;78.40;;;;;;5089146;28;20075;-76
2022/12/23 01:13:37;;;;;;;4.88;3.95;;;10.90;78.40;;;;;;5062818;28;20429;-76
2022/12/23 01:16:09;;;;;;;6.00;4.50;;;10.90;78.40;;;;;;5072417;28;20182;-75
2022/12/23 01:18:36;;;;;;;5.28;4.20;;;10.90;78.40;;;;;;5072308;28;20759;-75
2022/12/23 01:21:04;;;;;;;5.70;4.60;;;10.90;78.50;;;;;;5072394;28;20108;-75
2022/12/23 01:23:30;;;;;;;6.35;5.03;;;10.90;78.30;;;;;;5072026;28;20032;-75
2022/12/23 01:25:58;;;;;;;6.72;4.82;;;10.90;78.40;;;;;;5078742;28;20051;-78
2022/12/23 01:28:25;;;;;;;5.55;4.47;;;10.90;78.40;;;;;;5072946;28;20039;-75
2022/12/23 01:30:50;;;;;;;6.32;4.65;;;10.90;78.50;;;;;;5072535;28;20395;-75
2022/12/23 01:33:16;;;;;;;7.47;4.93;;;10.90;78.40;;;;;;5073071;28;20036;-74
2022/12/23 01:35:42;;;;;;;6.72;5.10;;;10.90;78.30;;;;;;5070500;28;20036;-75
2022/12/23 01:38:08;;;;;;;6.53;4.90;;;10.90;78.30;;;;;;5070778;28;20040;-77
2022/12/23 01:40:40;;;;;;;7.00;4.93;;;10.90;78.40;;;;;;5069959;28;20025;-76
2022/12/23 01:43:10;;;;;;;7.10;4.85;;;10.90;78.90;;;;;;5086589;28;20399;-76
2022/12/23 01:45:36;;;;;;;8.85;5.80;;;11.00;78.30;;;;;;5091150;28;20028;-76
2022/12/23 01:48:20;;;;;;;8.82;5.40;;;10.90;78.30;;;;;;5073323;28;20027;-77
2022/12/23 01:50:54;;;;;;;6.90;5.00;;;10.90;78.30;;;;;;5054670;28;20040;-75
2022/12/23 01:53:30;;;;;;;6.63;4.97;;;10.90;78.30;;;;;;5072283;28;20036;-76
2022/12/23 01:56:22;;;;;;;7.72;5.63;;;10.90;78.30;;;;;;5070235;28;20040;-76
2022/12/23 02:03:40;;;;;;;8.75;5.57;;;10.90;78.30;;;;;;5059754;28;20036;-75
2022/12/23 02:04:50;;;;;;;8.70;5.28;;;10.90;78.40;;;;;;5071431;28;20035;-75
2022/12/23 02:10:04;;;;;;;7.53;5.10;;;10.90;78.20;;;;;;5069455;28;20411;-75
2022/12/23 02:13:20;;;;;;;8.88;6.07;;;10.90;78.10;;;;;;5070844;28;20119;-76
2022/12/23 02:19:04;;;;;;;8.48;6.05;;;10.90;78.20;;;;;;5028339;28;20025;-75
2022/12/23 02:21:48;;;;;;;8.50;6.00;;;10.90;78.10;;;;;;5027289;28;20033;-76
2022/12/23 02:24:36;;;;;;;9.95;6.35;;;10.90;78.20;;;;;;5029305;28;20111;-76
2022/12/23 02:27:11;;;;;;;9.82;6.20;;;10.90;78.20;;;;;;5029642;28;20126;-76
2022/12/23 02:30:03;;;;;;;10.65;6.20;;;10.90;78.20;;;;;;5031690;28;20542;-75
2022/12/23 02:32:48;;;;;;;8.02;6.03;;;10.90;78.10;;;;;;5030444;28;20076;-75
2022/12/23 02:35:22;;;;;;;9.82;6.60;;;10.90;78.10;;;;;;5011962;28;20056;-76
2022/12/23 02:38:08;;;;;;;9.40;6.15;;;10.90;78.10;;;;;;5028122;28;20144;-74
2022/12/23 02:40:42;;;;;;;9.93;5.85;;;10.90;78.10;;;;;;5040857;28;20037;-77
2022/12/23 02:43:21;;;;;;;12.40;7.45;;;10.90;78.10;;;;;;5027867;28;20061;-74
2022/12/23 02:46:05;;;;;;;10.55;6.78;;;10.90;78.10;;;;;;5028412;28;20496;-75
2022/12/23 02:48:39;;;;;;;11.23;6.43;;;10.90;78.10;;;;;;5028293;28;20048;-75
2022/12/23 02:51:08;;;;;;;9.13;6.20;;;10.90;78.00;;;;;;5010957;28;20064;-75
2022/12/23 02:53:40;;;;;;;9.13;6.57;;;10.90;78.00;;;;;;5063965;28;20037;-76
2022/12/23 02:56:08;;;;;;;9.13;6.30;;;10.90;78.00;;;;;;5069320;28;20108;-75
2022/12/23 02:58:41;;;;;;;10.63;6.60;;;10.90;78.00;;;;;;5069624;28;20035;-75
2022/12/23 03:01:09;;;;;;;11.43;6.47;;;10.90;78.00;;;;;;5086533;28;20548;-74
2022/12/23 03:03:36;;;;;;;12.07;7.20;;;10.90;77.90;;;;;;5069501;28;20043;-75
2022/12/23 03:06:15;;;;;;;9.02;6.60;;;10.90;77.90;;;;;;5068653;28;20032;-76
2022/12/23 03:08:43;;;;;;;11.00;7.30;;;10.90;77.90;;;;;;5068028;28;20421;-73
2022/12/23 03:11:13;;;;;;;12.45;7.88;;;10.90;77.90;;;;;;5083898;28;20028;-74
2022/12/23 03:14:00;;;;;;;10.98;7.30;;;10.90;77.90;;;;;;5071308;28;20036;-75
2022/12/23 03:16:32;;;;;;;10.63;6.35;;;10.90;77.90;;;;;;5082967;28;20029;-75
2022/12/23 03:19:20;;;;;;;9.95;6.72;;;10.90;77.90;;;;;;5069115;28;20424;-75
2022/12/23 03:22:09;;;;;;;10.45;6.85;;;10.90;77.80;;;;;;5086389;28;20617;-74
2022/12/23 03:24:48;;;;;;;12.15;7.22;;;10.90;77.90;;;;;;5067948;28;20403;-76
2022/12/23 03:27:24;;;;;;;12.88;7.15;;;10.90;77.80;;;;;;5070251;28;20048;-77
2022/12/23 03:30:02;;;;;;;11.50;7.20;;;10.90;77.80;;;;;;5052791;28;20414;-76
2022/12/23 03:32:36;;;;;;;11.77;7.43;;;10.90;77.80;;;;;;5063370;28;20515;-76
2022/12/23 03:35:04;;;;;;;11.05;7.03;;;10.90;77.80;;;;;;5066670;28;20118;-74
2022/12/23 03:37:34;;;;;;;12.52;8.25;;;10.90;77.80;;;;;;5069045;28;20516;-80
2022/12/23 03:40:05;;;;;;;11.88;8.05;;;10.90;77.90;;;;;;5069079;28;20149;-79
2022/12/23 03:42:36;;;;;;;13.82;7.97;;;10.90;77.80;;;;;;5084225;28;20495;-79
2022/12/23 03:45:09;;;;;;;11.45;7.43;;;10.90;77.70;;;;;;5066925;28;20033;-79
2022/12/23 03:47:47;;;;;;;14.98;8.13;;;10.90;77.60;;;;;;5047802;28;20507;-79
2022/12/23 03:50:16;;;;;;;12.02;7.03;;;10.90;77.50;;;;;;5064968;28;20086;-78
2022/12/23 03:52:49;;;;;;;11.60;7.18;;;10.90;77.40;;;;;;5066160;28;20040;-77
2022/12/23 03:55:26;;;;;;;12.23;7.65;;;10.90;77.20;;;;;;5064665;28;20029;-78
2022/12/23 03:58:11;;;;;;;12.48;7.75;;;10.90;77.10;;;;;;5085849;28;20059;-79
2022/12/23 04:00:47;;;;;;;12.32;8.00;;;10.90;77.00;;;;;;5073368;28;20039;-79
2022/12/23 04:03:23;;;;;;;13.00;8.30;;;10.90;76.80;;;;;;5089534;28;20123;-77
2022/12/23 04:05:56;;;;;;;14.65;7.93;;;10.90;76.70;;;;;;5078993;28;20044;-77
2022/12/23 04:08:27;;;;;;;13.32;8.27;;;10.90;76.60;;;;;;5108199;28;20082;-77
2022/12/23 04:10:53;;;;;;;13.75;8.95;;;10.90;76.50;;;;;;5075266;28;20035;-77
2022/12/23 04:13:19;;;;;;;17.92;8.38;;;10.90;76.40;;;;;;5070819;28;20725;-80
2022/12/23 04:15:45;;;;;;;10.57;7.78;;;10.90;76.30;;;;;;5086439;28;20028;-77
2022/12/23 04:18:11;;;;;;;13.82;7.80;;;10.90;76.30;;;;;;5083959;28;20674;-78
2022/12/23 04:20:37;;;;;;;12.60;8.05;;;10.80;76.30;;;;;;5070707;28;20128;-76
2022/12/23 04:23:03;;;;;;;12.75;8.23;;;10.90;76.30;;;;;;5088682;28;20040;-77
2022/12/23 04:25:29;;;;;;;13.88;8.05;;;10.90;76.30;;;;;;5052783;28;20128;-78
2022/12/23 04:27:55;;;;;;;12.68;7.97;;;10.90;76.30;;;;;;5073244;28;20494;-76
2022/12/23 04:30:21;;;;;;;12.20;8.13;;;10.80;76.90;;;;;;5074898;28;20490;-79
2022/12/23 04:32:47;;;;;;;11.57;7.90;;;10.80;76.30;;;;;;5053789;28;20135;-79
2022/12/23 04:35:13;;;;;;;12.00;8.25;;;10.90;76.40;;;;;;5071489;28;20060;-78
2022/12/23 04:37:39;;;;;;;12.02;8.25;;;10.80;76.50;;;;;;5072531;28;20495;-77
2022/12/23 04:40:06;;;;;;;11.23;7.43;;;10.90;76.70;;;;;;5070380;28;20527;-78
2022/12/23 04:42:32;;;;;;;11.63;7.70;;;10.80;76.80;;;;;;5065356;28;20039;-75
2022/12/23 04:44:58;;;;;;;12.27;7.70;;;10.90;77.10;;;;;;5070767;28;20031;-78
2022/12/23 04:47:26;;;;;;;11.88;8.18;;;10.90;77.40;;;;;;5087916;28;20033;-78
2022/12/23 04:49:52;;;;;;;13.95;7.78;;;10.90;77.70;;;;;;5076829;28;20032;-72
2022/12/23 04:52:18;;;;;;;12.50;8.18;;;10.90;78.00;;;;;;5073747;28;20032;-72
2022/12/23 04:54:43;;;;;;;12.25;8.13;;;10.90;78.10;;;;;;5070930;28;20042;-70
2022/12/23 04:57:09;;;;;;;15.77;8.65;;;10.90;78.20;;;;;;5070859;28;20032;-71
2022/12/23 04:59:35;;;;;;;15.63;9.23;;;10.90;78.20;;;;;;5053763;28;20025;-73
2022/12/23 05:02:01;;;;;;;12.35;8.75;;;10.90;78.20;;;;;;5071031;28;20032;-71
2022/12/23 05:04:27;;;;;;;12.82;8.10;;;10.90;78.30;;;;;;5072229;28;20141;-70
2022/12/23 05:06:53;;;;;;;17.80;8.35;;;10.90;78.40;;;;;;5078608;28;20029;-72
2022/12/23 05:09:19;;;;;;;12.55;7.70;;;10.90;78.50;;;;;;5070399;28;20545;-73
2022/12/23 05:11:45;;;;;;;15.73;8.35;;;10.90;78.50;;;;;;5071177;28;20055;-71
2022/12/23 05:14:11;;;;;;;14.32;8.43;;;10.90;78.50;;;;;;5078540;28;20050;-72
2022/12/23 05:16:38;;;;;;;13.90;8.43;;;10.90;79.10;;;;;;5073476;28;20028;-71
2022/12/23 05:19:04;;;;;;;11.90;7.80;;;10.90;78.30;;;;;;5071628;28;20153;-72
2022/12/23 05:21:30;;;;;;;11.95;7.60;;;10.90;78.20;;;;;;5068161;28;20459;-72
2022/12/23 05:23:56;;;;;;;11.43;8.05;;;10.90;78.10;;;;;;5070925;28;20040;-72
2022/12/23 05:26:22;;;;;;;12.32;7.82;;;10.90;78.10;;;;;;5069816;28;20036;-72
2022/12/23 05:28:48;;;;;;;14.10;7.95;;;10.90;78.00;;;;;;5069347;28;20075;-71
2022/12/23 05:31:15;;;;;;;11.80;7.78;;;10.90;77.90;;;;;;5052945;28;20103;-72
2022/12/23 05:33:42;;;;;;;10.90;7.40;;;10.90;77.80;;;;;;5072417;28;20078;-72
2022/12/23 05:36:09;;;;;;;12.43;7.30;;;10.90;77.70;;;;;;5076479;28;21016;-72
2022/12/23 05:38:34;;;;;;;11.30;7.05;;;10.90;77.60;;;;;;5071461;28;20584;-72
2022/12/23 05:41:01;;;;;;;11.20;6.95;;;10.90;77.50;;;;;;5089650;28;20040;-71
2022/12/23 05:43:28;;;;;;;13.15;7.40;;;10.90;77.40;;;;;;5084989;28;20060;-70
2022/12/23 05:45:53;;;;;;;10.73;6.95;;;10.90;77.30;;;;;;5087874;28;20033;-71
2022/12/23 05:48:20;;;;;;;9.63;6.78;;;10.90;77.20;;;;;;5071842;28;20043;-72
2022/12/23 05:50:52;;;;;;;11.43;7.47;;;10.90;77.10;;;;;;5068345;28;20993;-72
2022/12/23 05:53:18;;;;;;;9.23;6.60;;;10.90;77.00;;;;;;5070054;28;20039;-72
2022/12/23 05:55:45;;;;;;;10.05;6.75;;;10.90;77.00;;;;;;5070210;28;20353;-73
2022/12/23 05:58:11;;;;;;;9.73;6.65;;;10.90;77.00;;;;;;5070775;28;20064;-70
2022/12/23 06:00:37;;;;;;;10.32;6.53;;;10.90;79.00;;;;;;5068328;28;20044;-68
2022/12/23 06:03:03;;;;;;;9.57;6.22;;;11.00;80.50;;;;;;5070166;28;20060;-71
2022/12/23 06:05:29;;;;;;;11.85;6.90;;;11.10;81.30;;;;;;5068092;28;20082;-69
2022/12/23 06:07:55;;;;;;;26.67;17.23;;;11.20;80.80;;;;;;5069292;28;20033;-70
2022/12/23 06:10:21;;;;;;;18.40;11.10;;;11.20;81.10;;;;;;5069858;28;20047;-71
2022/12/23 06:12:47;;;;;;;16.88;8.75;;;11.30;80.50;;;;;;5068636;28;20037;-70
2022/12/23 06:15:14;;;;;;;13.13;8.43;;;11.40;80.40;;;;;;5069790;28;20139;-70
2022/12/23 06:17:40;;;;;;;11.90;7.60;;;11.50;79.80;;;;;;5085113;28;20033;-70
2022/12/23 06:20:07;;;;;;;12.43;7.43;;;11.70;79.40;;;;;;5068444;28;20055;-70
2022/12/23 06:22:33;;;;;;;11.18;7.70;;;11.70;78.70;;;;;;5070373;28;20123;-70
2022/12/23 06:24:58;;;;;;;11.48;7.80;;;11.80;78.30;;;;;;5070526;28;20539;-71
2022/12/23 06:27:24;;;;;;;11.10;7.18;;;11.80;77.80;;;;;;5071183;28;20605;-70
2022/12/23 06:29:50;;;;;;;9.57;7.55;;;11.90;77.10;;;;;;5070648;28;20050;-71
2022/12/23 06:32:16;;;;;;;11.43;7.05;;;11.90;76.50;;;;;;5068047;28;20051;-71
2022/12/23 06:34:42;;;;;;;12.43;7.50;;;12.00;76.10;;;;;;5068354;28;20368;-71
2022/12/23 06:37:08;;;;;;;9.57;6.78;;;12.10;75.60;;;;;;5051067;28;20532;-73
2022/12/23 06:39:34;;;;;;;9.45;6.65;;;12.20;75.90;;;;;;5068408;28;20114;-74
2022/12/23 06:42:00;;;;;;;10.55;6.60;;;12.20;76.10;;;;;;5070351;28;20143;-74
2022/12/23 06:44:26;;;;;;;9.80;6.65;;;12.20;75.70;;;;;;5069807;28;20044;-74
2022/12/23 06:46:52;;;;;;;7.90;6.10;;;12.20;75.40;;;;;;5069596;28;20029;-75
2022/12/23 06:49:18;;;;;;;8.38;6.07;;;12.20;75.00;;;;;;5047124;28;20071;-75
2022/12/23 06:51:44;;;;;;;8.90;6.00;;;12.20;74.70;;;;;;5069007;28;20047;-75
2022/12/23 06:54:11;;;;;;;8.90;6.43;;;12.20;75.20;;;;;;5069442;28;20033;-75
2022/12/23 06:56:37;;;;;;;9.40;6.50;;;12.20;74.40;;;;;;5070078;28;20052;-74
2022/12/23 06:59:03;;;;;;;9.20;6.60;;;12.20;74.20;;;;;;5082176;28;20193;-75
2022/12/23 07:01:29;;;;;;;9.40;6.35;;;12.20;74.00;;;;;;5068031;28;20115;-75
2022/12/23 07:03:55;;;;;;;12.05;7.38;;;12.10;73.70;;;;;;5069683;28;20064;-75
2022/12/23 07:06:21;;;;;;;10.40;7.25;;;12.10;73.50;;;;;;5071353;28;20395;-74
2022/12/23 07:08:47;;;;;;;9.52;6.80;;;12.10;73.50;;;;;;5068478;28;20510;-74
2022/12/23 07:11:13;;;;;;;10.98;7.35;;;12.10;73.40;;;;;;5069752;28;20033;-74
2022/12/23 07:13:39;;;;;;;10.15;7.10;;;12.10;73.30;;;;;;5070783;28;20097;-74
2022/12/23 07:16:07;;;;;;;9.88;6.68;;;12.10;73.30;;;;;;5069577;28;20048;-74
2022/12/23 07:18:34;;;;;;;10.82;7.03;;;12.10;73.20;;;;;;5068403;28;20060;-74
2022/12/23 07:21:01;;;;;;;12.13;7.13;;;12.00;73.00;;;;;;5068040;28;20020;-75
2022/12/23 07:23:27;;;;;;;10.00;7.10;;;12.00;73.00;;;;;;5071130;28;20074;-75
2022/12/23 07:25:54;;;;;;;10.43;7.30;;;12.00;73.00;;;;;;5067801;28;20029;-74
2022/12/23 07:28:21;;;;;;;13.82;7.72;;;12.00;72.90;;;;;;5068210;28;20033;-75
2022/12/23 07:30:47;;;;;;;12.52;7.72;;;12.00;72.80;;;;;;5069132;28;20074;-74
2022/12/23 07:33:13;;;;;;;11.63;7.78;;;12.00;72.80;;;;;;5080672;28;20575;-75
2022/12/23 07:35:41;;;;;;;10.80;7.70;;;12.00;72.90;;;;;;5055087;28;20032;-74
2022/12/23 07:38:07;;;;;;;12.60;7.60;;;11.90;72.80;;;;;;5087939;28;20032;-74
2022/12/23 07:40:33;;;;;;;11.10;7.70;;;11.90;72.70;;;;;;5086636;28;20123;-74
2022/12/23 07:42:59;;;;;;;12.77;8.60;;;11.90;72.70;;;;;;5071169;28;20161;-74
2022/12/23 07:45:27;;;;;;;11.48;7.40;;;11.90;72.60;;;;;;5071940;28;20032;-74
2022/12/23 07:47:58;;;;;;;10.27;7.15;;;11.90;72.60;;;;;;5070997;28;20056;-75
2022/12/23 07:50:24;;;;;;;10.57;6.97;;;11.90;72.80;;;;;;5088503;28;20123;-75
2022/12/23 07:52:51;;;;;;;13.05;7.47;;;11.90;72.70;;;;;;5073748;28;20507;-75
2022/12/23 07:55:18;;;;;;;13.48;7.60;;;11.90;72.60;;;;;;5071241;28;20126;-77
2022/12/23 07:57:48;;;;;;;11.75;7.57;;;11.80;72.60;;;;;;5089558;28;20147;-74
2022/12/23 08:00:14;;;;;;;10.25;7.25;;;11.80;72.80;;;;;;5072093;28;20402;-75
2022/12/23 08:02:41;;;;;;;11.05;7.57;;;11.90;72.80;;;;;;5073897;28;20489;-75
2022/12/23 08:05:07;;;;;;;11.68;7.65;;;11.80;72.80;;;;;;5070619;28;20135;-74
2022/12/23 08:07:33;;;;;;;11.50;7.13;;;11.80;72.80;;;;;;5071193;28;20043;-74
2022/12/23 08:09:59;;;;;;;10.77;7.50;;;11.80;72.80;;;;;;5072547;28;20043;-75
2022/12/23 08:12:26;;;;;;;11.52;7.20;;;11.80;72.80;;;;;;5071846;28;20028;-75
2022/12/23 08:14:51;;;;;;;12.02;7.88;;;11.80;73.10;;;;;;5073848;28;20131;-75
2022/12/23 08:17:21;;;;;;;11.07;7.28;;;11.80;72.80;;;;;;5087792;28;20134;-76
2022/12/23 08:19:48;;;;;;;11.07;7.20;;;11.80;72.80;;;;;;5088536;28;20061;-75
2022/12/23 08:22:14;;;;;;;12.45;7.75;;;11.80;72.90;;;;;;5071721;28;20510;-76
2022/12/23 08:24:40;;;;;;;10.80;7.38;;;11.80;72.90;;;;;;5073112;28;20033;-76
2022/12/23 08:27:06;;;;;;;12.38;7.22;;;11.80;73.00;;;;;;5058691;28;20044;-75
2022/12/23 08:29:32;;;;;;;9.98;7.07;;;11.70;72.90;;;;;;5087487;28;20040;-75
2022/12/23 08:31:58;;;;;;;11.60;7.45;;;11.80;73.00;;;;;;5083811;28;20044;-75
2022/12/23 08:34:24;;;;;;;13.05;7.60;;;11.80;73.00;;;;;;5091635;28;20048;-75
2022/12/23 08:36:50;;;;;;;11.80;6.85;;;11.80;73.00;;;;;;5084797;28;20123;-75
2022/12/23 08:39:17;;;;;;;11.90;7.25;;;11.80;73.00;;;;;;5058812;28;20039;-76
2022/12/23 08:41:46;;;;;;;12.00;7.78;;;11.70;72.90;;;;;;5073185;28;20036;-76
2022/12/23 08:44:12;;;;;;;12.48;7.75;;;11.70;73.00;;;;;;5081741;28;20414;-76
2022/12/23 08:46:38;;;;;;;12.05;7.97;;;11.70;73.00;;;;;;5072690;28;20071;-76
2022/12/23 08:49:05;;;;;;;11.13;7.15;;;11.70;73.00;;;;;;5071325;28;20033;-76
2022/12/23 08:51:31;;;;;;;13.00;8.50;;;11.70;73.10;;;;;;5084235;28;20222;-76
2022/12/23 08:53:58;;;;;;;12.90;8.15;;;11.70;73.20;;;;;;5070153;28;20127;-76
2022/12/23 08:56:27;;;;;;;15.00;8.13;;;11.70;73.30;;;;;;5070845;28;20059;-75
2022/12/23 08:58:55;;;;;;;12.77;7.85;;;11.70;73.30;;;;;;5071255;28;20128;-76
2022/12/23 09:01:25;;;;;;;11.43;7.65;;;11.70;74.10;;;;;;5071457;28;20043;-74
2022/12/23 09:03:51;;;;;;;13.10;8.00;;;11.70;73.50;;;;;;5071402;28;20493;-75
2022/12/23 09:06:19;;;;;;;13.43;8.70;;;11.70;73.50;;;;;;5071303;28;20028;-74
2022/12/23 09:08:45;;;;;;;13.63;8.00;;;11.70;73.50;;;;;;5072046;28;20037;-76
2022/12/23 09:11:15;;;;;;;13.75;8.10;;;11.70;73.60;;;;;;5070320;28;20032;-75
2022/12/23 09:13:41;;;;;;;12.00;7.70;;;11.70;73.50;;;;;;5036721;28;20033;-75
2022/12/23 09:16:07;;;;;;;14.02;8.45;;;11.70;73.60;;;;;;5069655;28;20070;-73
2022/12/23 09:18:34;;;;;;;13.45;8.45;;;11.70;73.60;;;;;;5078136;28;20073;-75
2022/12/23 09:21:02;;;;;;;13.32;8.27;;;11.70;73.60;;;;;;5061908;28;20039;-76
2022/12/23 09:23:28;;;;;;;14.15;8.43;;;11.70;73.60;;;;;;5071499;28;20041;-74
2022/12/23 09:25:55;;;;;;;12.02;7.97;;;11.70;73.70;;;;;;5068843;28;20037;-74
2022/12/23 09:28:21;;;;;;;15.27;8.38;;;11.70;73.70;;;;;;5079284;28;20605;-74
2022/12/23 09:30:47;;;;;;;15.60;8.82;;;11.70;73.80;;;;;;5071623;28;20119;-74
2022/12/23 09:33:14;;;;;;;12.98;8.02;;;11.70;73.80;;;;;;5069675;28;20265;-74
2022/12/23 09:35:40;;;;;;;13.98;7.90;;;11.70;73.90;;;;;;5086328;28;20124;-75
2022/12/23 09:38:06;;;;;;;12.38;8.15;;;11.70;73.90;;;;;;5069964;28;20131;-73
2022/12/23 09:40:33;;;;;;;13.15;8.05;;;11.70;73.90;;;;;;5071920;28;20047;-74
2022/12/23 09:43:16;;;;;;;11.80;7.72;;;11.70;74.50;;;;;;5083365;28;20028;-75
2022/12/23 09:45:51;;;;;;;12.93;8.00;;;11.70;73.80;;;;;;5071717;28;20395;-76
2022/12/23 09:48:24;;;;;;;12.48;8.15;;;11.70;73.80;;;;;;5071207;28;20111;-74
2022/12/23 09:50:50;;;;;;;12.88;7.75;;;11.70;73.60;;;;;;5070193;28;20029;-74
2022/12/23 09:53:23;;;;;;;14.13;8.43;;;11.70;73.60;;;;;;5070358;28;20374;-76
2022/12/23 09:55:52;;;;;;;14.43;8.85;;;11.70;73.60;;;;;;5070314;28;20454;-75
2022/12/23 09:58:36;;;;;;;11.98;7.90;;;11.70;73.60;;;;;;5071140;28;21129;-75
2022/12/23 10:01:21;;;;;;;13.95;8.50;;;11.70;73.60;;;;;;5072367;28;20036;-75
2022/12/23 10:04:02;;;;;;;13.52;7.78;;;11.70;73.50;;;;;;5053045;28;20040;-75
2022/12/23 10:06:29;;;;;;;16.10;8.98;;;11.70;73.50;;;;;;5067465;28;20494;-75
2022/12/23 10:09:02;;;;;;;13.18;7.82;;;11.70;73.50;;;;;;5070531;28;20035;-76
2022/12/23 10:11:41;;;;;;;11.35;7.20;;;11.70;73.40;;;;;;5070204;28;20158;-76
2022/12/23 10:14:26;;;;;;;12.05;7.60;;;11.70;73.40;;;;;;5069837;28;20041;-77
2022/12/23 10:16:56;;;;;;;12.43;7.70;;;11.70;73.40;;;;;;5070314;28;20033;-75
2022/12/23 10:19:40;;;;;;;12.10;7.70;;;11.70;73.40;;;;;;5071325;28;20051;-73
2022/12/23 10:22:23;;;;;;;11.75;8.02;;;11.70;73.40;;;;;;5068294;28;20428;-75
2022/12/23 10:24:50;;;;;;;11.73;7.38;;;11.70;73.40;;;;;;5069941;28;20060;-73
2022/12/23 10:27:28;;;;;;;11.70;7.60;;;11.70;73.40;;;;;;5086862;28;20043;-74
2022/12/23 10:29:55;;;;;;;14.95;8.05;;;11.70;73.50;;;;;;5085265;28;20032;-75
2022/12/23 10:32:30;;;;;;;12.32;7.10;;;11.70;73.70;;;;;;5069520;28;20032;-74
2022/12/23 10:35:16;;;;;;;13.85;7.65;;;11.70;73.80;;;;;;5069311;28;20519;-74
2022/12/23 10:38:24;;;;;;;13.55;8.00;;;11.70;73.90;;;;;;5069355;28;20422;-72
2022/12/23 10:41:26;;;;;;;13.00;7.80;;;11.70;74.10;;;;;;5035609;28;20044;-74
2022/12/23 10:43:58;;;;;;;12.63;7.85;;;11.70;74.30;;;;;;5068796;28;20033;-73
2022/12/23 10:46:43;;;;;;;13.02;8.32;;;11.70;74.50;;;;;;5068555;28;20035;-73
2022/12/23 10:49:19;;;;;;;12.65;8.32;;;11.70;74.70;;;;;;5079689;28;20032;-72
2022/12/23 10:51:59;;;;;;;14.23;8.35;;;11.70;75.00;;;;;;5071238;28;20745;-73
2022/12/23 10:54:34;;;;;;;14.73;8.80;;;11.70;75.10;;;;;;5085007;28;20120;-73
2022/12/23 10:57:01;;;;;;;14.90;9.00;;;11.70;75.30;;;;;;5068063;28;20131;-74
2022/12/23 10:59:31;;;;;;;13.30;8.25;;;11.80;75.40;;;;;;5085517;28;20142;-74
2022/12/23 11:02:04;;;;;;;13.50;8.50;;;11.70;75.30;;;;;;5074291;28;20078;-75
2022/12/23 11:04:37;;;;;;;13.98;8.43;;;11.70;76.00;;;;;;5068765;28;20094;-84
2022/12/23 11:07:03;;;;;;;12.15;8.07;;;11.70;75.50;;;;;;5064967;28;20090;-84
2022/12/23 11:09:42;;;;;;;13.77;9.00;;;11.80;75.50;;;;;;5055938;28;20640;-81
2022/12/23 11:12:10;;;;;;;14.48;9.63;;;11.70;75.60;;;;;;5051551;28;20487;-81
2022/12/23 11:14:53;;;;;;;12.15;8.10;;;11.70;75.60;;;;;;5070177;28;20471;-79
2022/12/23 11:17:25;;;;;;;15.63;8.55;;;11.70;75.60;;;;;;5071544;28;20029;-84
2022/12/23 11:20:16;;;;;;;13.23;8.00;;;11.70;75.80;;;;;;5072380;28;20515;-80
2022/12/23 11:22:49;;;;;;;12.15;7.25;;;11.70;75.80;;;;;;5073467;28;20049;-79
2022/12/23 11:25:28;;;;;;;11.82;8.02;;;11.70;76.10;;;;;;5094642;28;20033;-82
2022/12/23 11:28:06;;;;;;;12.18;8.50;;;11.70;76.00;;;;;;5082746;28;20052;-81
2022/12/23 11:30:58;;;;;;;14.30;8.57;;;11.70;76.20;;;;;;5091597;28;20024;-81
2022/12/23 11:33:35;;;;;;;13.70;8.25;;;11.70;76.10;;;;;;5075275;28;20040;-82
2022/12/23 11:36:10;;;;;;;17.63;9.18;;;11.80;76.30;;;;;;5053954;28;20060;-82
2022/12/23 11:39:06;;;;;;;13.75;9.02;;;11.70;76.30;;;;;;5061948;28;20165;-84
2022/12/23 11:41:51;;;;;;;15.73;9.20;;;11.70;76.20;;;;;;5059854;28;20033;-81
2022/12/23 11:44:26;;;;;;;12.82;7.78;;;11.70;76.20;;;;;;5089718;28;20278;-82
2022/12/23 11:46:52;;;;;;;11.30;8.50;;;11.80;77.10;;;;;;5069764;28;20179;-80
2022/12/23 11:49:21;;;;;;;10.77;7.60;;;11.80;77.20;;;;;;5072894;28;20040;-82
2022/12/23 11:52:04;;;;;;;12.60;7.57;;;11.80;77.20;;;;;;5095146;28;20431;-82
2022/12/23 11:54:32;;;;;;;11.20;7.55;;;11.80;77.10;;;;;;5070839;28;20040;-82
2022/12/23 11:57:01;;;;;;;11.60;7.82;;;11.80;77.00;;;;;;5075730;28;20409;-82
2022/12/23 11:59:35;;;;;;;10.30;7.20;;;11.80;77.00;;;;;;5061634;28;20033;-82
2022/12/23 12:02:30;;;;;;;13.43;8.38;;;11.80;77.00;;;;;;5089504;28;20094;-82
2022/12/23 12:05:41;;;;;;;17.88;7.63;;;11.80;77.10;;;;;;5045680;28;20044;-83
2022/12/23 12:08:13;;;;;;;10.73;7.40;;;11.80;77.00;;;;;;5083260;28;20119;-82
2022/12/23 12:10:40;;;;;;;11.07;7.38;;;11.80;76.90;;;;;;5083722;28;20032;-82
2022/12/23 12:13:36;;;;;;;10.30;7.32;;;11.80;77.00;;;;;;5067084;28;20060;-81
2022/12/23 12:16:30;;;;;;;10.87;7.17;;;11.80;76.90;;;;;;5070616;28;20037;-81
2022/12/23 12:19:25;;;;;;;9.40;7.07;;;11.80;76.90;;;;;;5067944;28;20713;-80
2022/12/23 12:21:56;;;;;;;10.02;7.22;;;11.80;76.90;;;;;;5053373;28;20029;-82
2022/12/23 12:24:29;;;;;;;8.07;6.10;;;11.80;76.90;;;;;;5054164;28;20508;-82
2022/12/23 12:27:01;;;;;;;9.55;7.15;;;11.70;76.90;;;;;;5066095;28;20048;-82
2022/12/23 12:29:33;;;;;;;8.38;6.63;;;11.80;76.90;;;;;;5076757;28;20090;-81
2022/12/23 12:32:00;;;;;;;9.73;7.07;;;11.80;77.00;;;;;;5075008;28;20036;-81
2022/12/23 12:34:58;;;;;;;8.80;6.50;;;11.80;77.10;;;;;;5073130;28;20052;-81
2022/12/23 12:37:43;;;;;;;9.23;6.07;;;11.70;77.00;;;;;;5087911;28;20035;-79
2022/12/23 12:40:46;;;;;;;7.90;6.15;;;11.70;77.10;;;;;;5070098;28;20415;-81
2022/12/23 12:43:22;;;;;;;8.65;6.05;;;11.70;77.10;;;;;;5009575;28;20044;-83
2022/12/23 12:46:11;;;;;;;8.20;5.78;;;11.80;77.20;;;;;;5025722;28;20053;-81
2022/12/23 12:49:01;;;;;;;8.27;6.53;;;11.80;77.10;;;;;;5017788;28;20068;-82
2022/12/23 12:51:53;;;;;;;7.57;6.05;;;11.70;77.10;;;;;;5008686;28;20041;-80
2022/12/23 12:55:00;;;;;;;10.15;6.55;;;11.70;77.10;;;;;;5026472;28;20038;-81
2022/12/23 12:57:35;;;;;;;10.77;6.65;;;11.70;77.20;;;;;;5024956;28;20454;-78
2022/12/23 13:00:03;;;;;;;6.83;5.37;;;11.70;77.20;;;;;;5025470;28;20103;-76
2022/12/23 13:02:51;;;;;;;11.88;6.53;;;11.70;77.40;;;;;;5024945;28;20548;-75
2022/12/23 13:05:36;;;;;;;8.60;6.40;;;11.70;77.50;;;;;;5025398;28;20049;-78
2022/12/23 13:08:02;;;;;;;10.70;5.80;;;11.70;77.70;;;;;;5024892;28;20056;-75
2022/12/23 13:10:49;;;;;;;7.28;5.70;;;11.70;78.00;;;;;;5024758;28;20036;-76
2022/12/23 13:13:44;;;;;;;9.23;6.20;;;11.70;78.20;;;;;;5024779;28;20042;-76
2022/12/23 13:16:10;;;;;;;7.38;5.22;;;11.70;78.40;;;;;;5023989;28;20099;-78
2022/12/23 13:18:51;;;;;;;8.80;5.93;;;11.70;78.60;;;;;;5045423;28;20029;-77
2022/12/23 13:21:25;;;;;;;8.25;5.57;;;11.70;78.70;;;;;;5073793;28;20028;-76
2022/12/23 13:24:00;;;;;;;9.10;6.10;;;11.70;78.90;;;;;;5052281;28;20058;-77
2022/12/23 13:26:36;;;;;;;13.13;5.65;;;11.70;79.00;;;;;;5070544;28;20056;-74
2022/12/23 13:29:43;;;;;;;10.25;6.72;;;11.70;79.00;;;;;;5070356;28;20055;-77